Time,TemperatureF,DewpointF,PressureIn,WindDirection,WindDirectionDegrees,WindSpeedMPH,WindSpeedGustMPH,Humidity,HourlyPrecipIn,Conditions,Clouds,dailyrainin,SoftwareType,DateUTC
2013-07-18 00:05:00,75.0,43.1,29.68,ENE,67,1.0,6.0,32,0.00,,,0.00,Weather View 32 v70,2013-07-18 04:05:00,
2013-07-18 00:10:00,75.0,45.4,29.68,NE,45,3.0,6.0,35,0.00,,,0.00,Weather View 32 v70,2013-07-18 04:10:00,
2013-07-18 00:15:00,74.0,40.5,29.68,NE,45,2.0,6.0,30,0.00,,,0.00,Weather View 32 v70,2013-07-18 04:15:00,
2013-07-18 00:20:00,74.0,38.7,29.68,NE,45,0.0,5.0,28,0.00,,,0.00,Weather View 32 v70,2013-07-18 04:20:00,
2013-07-18 00:25:00,74.0,46.7,29.68,NE,45,0.0,5.0,38,0.00,,,0.00,Weather View 32 v70,2013-07-18 04:25:00,
2013-07-18 00:35:00,74.0,51.2,29.67,NE,45,0.0,5.0,45,0.00,,,0.00,Weather View 32 v70,2013-07-18 04:35:00,
2013-07-18 00:45:00,74.0,45.3,29.68,NE,45,0.0,5.0,36,0.00,,,0.00,Weather View 32 v70,2013-07-18 04:45:00,
2013-07-18 00:50:00,74.0,43.0,29.68,NE,45,0.0,5.0,33,0.00,,,0.00,Weather View 32 v70,2013-07-18 04:50:00,
2013-07-18 01:00:00,74.0,34.8,29.67,NE,45,0.0,5.0,24,0.00,,,0.00,Weather View 32 v70,2013-07-18 05:00:00,
2013-07-18 01:05:00,74.0,39.6,29.67,NNW,337,0.0,5.0,29,0.00,,,0.00,Weather View 32 v70,2013-07-18 05:05:00,
2013-07-18 01:15:00,73.0,44.4,29.67,NNW,337,0.0,3.0,36,0.00,,,0.00,Weather View 32 v70,2013-07-18 05:15:00,
2013-07-18 01:21:00,73.0,41.3,29.67,NNW,337,0.0,3.0,32,0.00,,,0.00,Weather View 32 v70,2013-07-18 05:21:00,
2013-07-18 01:30:00,73.0,37.0,29.67,NNE,22,4.0,5.0,27,0.00,,,0.00,Weather View 32 v70,2013-07-18 05:30:00,
2013-07-18 01:35:00,73.0,17.3,29.67,North,360,0.0,5.0,12,0.00,,,0.00,Weather View 32 v70,2013-07-18 05:35:00,
2013-07-18 01:45:00,73.0,-2.0,29.67,West,270,0.0,5.0,5,0.00,,,0.00,Weather View 32 v70,2013-07-18 05:45:00,
2013-07-18 01:50:00,73.0,-2.0,29.67,West,270,0.0,5.0,5,0.00,,,0.00,Weather View 32 v70,2013-07-18 05:50:00,
2013-07-18 01:55:00,73.0,-33.3,29.66,West,270,0.0,5.0,1,0.00,,,0.00,Weather View 32 v70,2013-07-18 05:55:00,
2013-07-18 02:05:00,73.0,-33.3,29.66,West,270,0.0,5.0,1,0.00,,,0.00,Weather View 32 v70,2013-07-18 06:05:00,
2013-07-18 02:15:00,73.0,-12.5,29.65,West,270,0.0,5.0,3,0.00,,,0.00,Weather View 32 v70,2013-07-18 06:15:00,
2013-07-18 02:20:00,73.0,-20.4,29.65,West,270,0.0,5.0,2,0.00,,,0.00,Weather View 32 v70,2013-07-18 06:20:00,
2013-07-18 02:25:00,73.0,-6.7,29.65,West,270,0.0,5.0,4,0.00,,,0.00,Weather View 32 v70,2013-07-18 06:25:00,
2013-07-18 02:35:00,73.0,-33.3,29.65,NW,315,0.0,5.0,1,0.00,,,0.00,Weather View 32 v70,2013-07-18 06:35:00,
2013-07-18 02:40:00,73.0,-33.3,29.65,NW,315,0.0,3.0,1,0.00,,,0.00,Weather View 32 v70,2013-07-18 06:40:00,
2013-07-18 02:45:00,73.0,-33.3,29.65,NW,315,0.0,3.0,1,0.00,,,0.00,Weather View 32 v70,2013-07-18 06:45:00,
2013-07-18 02:55:00,73.0,-33.3,29.65,West,270,0.0,4.0,1,0.00,,,0.00,Weather View 32 v70,2013-07-18 06:55:00,
2013-07-18 03:05:00,73.0,-33.3,29.65,NE,45,1.0,5.0,1,0.00,,,0.00,Weather View 32 v70,2013-07-18 07:05:00,
2013-07-18 03:10:00,73.0,-33.3,29.65,NE,45,0.0,5.0,1,0.00,,,0.00,Weather View 32 v70,2013-07-18 07:10:00,
2013-07-18 03:20:00,73.0,-33.3,29.64,NE,45,0.0,5.0,1,0.00,,,0.00,Weather View 32 v70,2013-07-18 07:20:00,
2013-07-18 03:25:00,73.0,-33.3,29.65,NE,45,0.0,5.0,1,0.00,,,0.00,Weather View 32 v70,2013-07-18 07:25:00,
2013-07-18 03:30:00,73.0,-33.3,29.65,NE,45,2.0,5.0,1,0.00,,,0.00,Weather View 32 v70,2013-07-18 07:30:00,
2013-07-18 03:40:00,73.0,-33.3,29.64,NE,45,0.0,5.0,1,0.00,,,0.00,Weather View 32 v70,2013-07-18 07:40:00,
2013-07-18 03:45:00,73.0,-33.3,29.64,WNW,292,1.0,5.0,1,0.00,,,0.00,Weather View 32 v70,2013-07-18 07:45:00,
2013-07-18 03:55:00,73.0,-33.3,29.64,WNW,292,0.0,5.0,1,0.00,,,0.00,Weather View 32 v70,2013-07-18 07:55:00,
2013-07-18 04:00:00,73.0,-33.3,29.64,WNW,292,0.0,5.0,1,0.00,,,0.00,Weather View 32 v70,2013-07-18 08:00:00,
2013-07-18 04:10:00,73.0,-33.3,29.64,WNW,292,0.0,5.0,1,0.00,,,0.00,Weather View 32 v70,2013-07-18 08:10:00,
2013-07-18 04:15:00,72.0,-33.9,29.64,WNW,292,0.0,5.0,1,0.00,,,0.00,Weather View 32 v70,2013-07-18 08:15:00,
2013-07-18 04:22:00,72.0,-33.9,29.64,WNW,292,0.0,5.0,1,0.00,,,0.00,Weather View 32 v70,2013-07-18 08:22:00,
2013-07-18 04:30:00,72.0,-33.9,29.64,WNW,292,0.0,5.0,1,0.00,,,0.00,Weather View 32 v70,2013-07-18 08:30:00,
2013-07-18 04:35:00,72.0,-33.9,29.65,North,360,0.0,5.0,1,0.00,,,0.00,Weather View 32 v70,2013-07-18 08:35:00,
2013-07-18 04:40:00,72.0,-33.9,29.64,North,360,1.0,3.0,1,0.00,,,0.00,Weather View 32 v70,2013-07-18 08:40:00,
2013-07-18 04:50:00,72.0,-33.9,29.64,NNE,22,0.0,4.0,1,0.00,,,0.00,Weather View 32 v70,2013-07-18 08:50:00,
2013-07-18 04:55:00,72.0,-33.9,29.64,North,360,2.0,6.0,1,0.00,,,0.00,Weather View 32 v70,2013-07-18 08:55:00,
2013-07-18 05:05:00,72.0,-33.9,29.65,North,360,0.0,6.0,1,0.00,,,0.00,Weather View 32 v70,2013-07-18 09:05:00,
2013-07-18 05:15:00,72.0,-33.9,29.65,North,360,0.0,6.0,1,0.00,,,0.00,Weather View 32 v70,2013-07-18 09:15:00,
2013-07-18 05:23:00,72.0,-33.9,29.65,NNE,22,4.0,6.0,1,0.00,,,0.00,Weather View 32 v70,2013-07-18 09:23:00,
2013-07-18 05:30:00,72.0,-33.9,29.65,North,360,1.0,6.0,1,0.00,,,0.00,Weather View 32 v70,2013-07-18 09:30:00,
2013-07-18 05:35:00,72.0,-33.9,29.65,North,360,1.0,6.0,1,0.00,,,0.00,Weather View 32 v70,2013-07-18 09:35:00,
2013-07-18 05:45:00,72.0,-33.9,29.65,NNW,337,0.0,6.0,1,0.00,,,0.00,Weather View 32 v70,2013-07-18 09:45:00,
2013-07-18 05:50:00,72.0,-33.9,29.65,NNW,337,0.0,6.0,1,0.00,,,0.00,Weather View 32 v70,2013-07-18 09:50:00,
2013-07-18 06:00:00,72.0,-33.9,29.65,NNW,337,0.0,5.0,1,0.00,,,0.00,Weather View 32 v70,2013-07-18 10:00:00,
2013-07-18 06:10:00,72.0,-33.9,29.65,SW,225,0.0,5.0,1,0.00,,,0.00,Weather View 32 v70,2013-07-18 10:10:00,
2013-07-18 06:20:00,72.0,-33.9,29.66,NE,45,1.0,6.0,1,0.00,,,0.00,Weather View 32 v70,2013-07-18 10:20:00,
2013-07-18 06:25:00,72.0,-33.9,29.66,NE,45,0.0,6.0,1,0.00,,,0.00,Weather View 32 v70,2013-07-18 10:25:00,
2013-07-18 06:30:00,72.0,-33.9,29.66,NE,45,2.0,6.0,1,0.00,,,0.00,Weather View 32 v70,2013-07-18 10:30:00,
2013-07-18 06:40:00,73.0,-33.3,29.66,NNE,22,0.0,7.0,1,0.00,,,0.00,Weather View 32 v70,2013-07-18 10:40:00,
2013-07-18 06:50:00,74.0,-32.7,29.66,WNW,292,0.0,7.0,1,0.00,,,0.00,Weather View 32 v70,2013-07-18 10:50:00,
2013-07-18 06:55:00,74.0,-32.7,29.65,WNW,292,0.0,7.0,1,0.00,,,0.00,Weather View 32 v70,2013-07-18 10:55:00,
2013-07-18 07:05:00,75.0,-32.1,29.65,WNW,292,0.0,7.0,1,0.00,,,0.00,Weather View 32 v70,2013-07-18 11:05:00,
2013-07-18 07:15:00,77.0,-30.9,29.65,WNW,292,0.0,7.0,1,0.00,,,0.00,Weather View 32 v70,2013-07-18 11:15:00,
2013-07-18 07:20:00,78.0,-30.3,29.66,WNW,292,0.0,7.0,1,0.00,,,0.00,Weather View 32 v70,2013-07-18 11:20:00,
2013-07-18 07:30:00,79.0,19.9,29.66,WNW,292,0.0,7.0,11,0.00,,,0.00,Weather View 32 v70,2013-07-18 11:30:00,
2013-07-18 07:35:00,80.0,35.2,29.67,WNW,292,0.0,6.0,20,0.00,,,0.00,Weather View 32 v70,2013-07-18 11:35:00,
2013-07-18 07:45:00,82.0,74.8,29.67,North,360,0.0,5.0,79,0.00,,,0.00,Weather View 32 v70,2013-07-18 11:45:00,
2013-07-18 07:50:00,82.0,75.9,29.67,ENE,67,0.0,6.0,82,0.00,,,0.00,Weather View 32 v70,2013-07-18 11:50:00,
2013-07-18 07:55:00,83.0,75.8,29.67,NW,315,1.0,6.0,79,0.00,,,0.00,Weather View 32 v70,2013-07-18 11:55:00,
2013-07-18 08:05:00,83.0,75.0,29.67,NW,315,0.0,7.0,77,0.00,,,0.00,Weather View 32 v70,2013-07-18 12:05:00,
2013-07-18 08:15:00,84.0,75.2,29.67,West,270,2.0,7.0,75,0.00,,,0.00,Weather View 32 v70,2013-07-18 12:15:00,
2013-07-18 08:25:00,84.0,74.8,29.68,West,270,8.0,9.0,74,0.00,,,0.00,Weather View 32 v70,2013-07-18 12:25:00,
2013-07-18 08:35:00,83.0,74.2,29.68,West,270,7.0,12.0,75,0.00,,,0.00,Weather View 32 v70,2013-07-18 12:35:00,
2013-07-18 08:45:00,84.0,76.0,29.68,WSW,247,6.0,12.0,77,0.00,,,0.00,Weather View 32 v70,2013-07-18 12:45:00,
2013-07-18 08:55:00,84.0,75.2,29.68,WNW,292,2.0,12.0,75,0.00,,,0.00,Weather View 32 v70,2013-07-18 12:55:00,
2013-07-18 09:00:00,85.0,75.7,29.68,NW,315,6.0,12.0,74,0.00,,,0.00,Weather View 32 v70,2013-07-18 13:00:00,
2013-07-18 09:10:00,86.0,75.9,29.69,WNW,292,3.0,12.0,72,0.00,,,0.00,Weather View 32 v70,2013-07-18 13:10:00,
2013-07-18 09:20:00,85.0,74.5,29.69,WNW,292,0.0,12.0,71,0.00,,,0.00,Weather View 32 v70,2013-07-18 13:20:00,
2013-07-18 09:25:00,85.0,74.5,29.69,WNW,292,3.0,12.0,71,0.00,,,0.00,Weather View 32 v70,2013-07-18 13:25:00,
2013-07-18 09:35:00,87.0,75.5,29.68,NW,315,4.0,9.0,69,0.00,,,0.00,Weather View 32 v70,2013-07-18 13:35:00,
2013-07-18 09:45:00,88.0,75.6,29.68,WNW,292,3.0,9.0,67,0.00,,,0.00,Weather View 32 v70,2013-07-18 13:45:00,
2013-07-18 09:55:00,88.0,75.6,29.68,North,360,2.0,9.0,67,0.00,,,0.00,Weather View 32 v70,2013-07-18 13:55:00,
2013-07-18 10:05:00,90.0,75.2,29.68,North,360,7.0,9.0,62,0.00,,,0.00,Weather View 32 v70,2013-07-18 14:05:00,
2013-07-18 10:10:00,90.0,74.7,29.68,North,360,7.0,9.0,61,0.00,,,0.00,Weather View 32 v70,2013-07-18 14:10:00,
2013-07-18 10:20:00,91.0,74.6,29.68,NNW,337,4.0,9.0,59,0.00,,,0.00,Weather View 32 v70,2013-07-18 14:20:00,
2013-07-18 10:26:00,89.0,73.2,29.69,WNW,292,5.0,9.0,60,0.00,,,0.00,Weather View 32 v70,2013-07-18 14:26:00,
2013-07-18 10:35:00,91.0,74.6,29.69,North,360,3.0,9.0,59,0.00,,,0.00,Weather View 32 v70,2013-07-18 14:35:00,
2013-07-18 10:45:00,93.0,74.9,29.69,NNW,337,4.0,9.0,56,0.00,,,0.00,Weather View 32 v70,2013-07-18 14:45:00,
2013-07-18 10:55:00,93.0,72.7,29.69,NNE,22,7.0,10.0,52,0.00,,,0.00,Weather View 32 v70,2013-07-18 14:55:00,
2013-07-18 11:00:00,93.0,73.3,29.69,West,270,0.0,10.0,53,0.00,,,0.00,Weather View 32 v70,2013-07-18 15:00:00,
2013-07-18 11:10:00,94.0,73.6,29.69,NNE,22,8.0,10.0,52,0.00,,,0.00,Weather View 32 v70,2013-07-18 15:10:00,
2013-07-18 11:20:00,93.0,73.3,29.69,NE,45,10.0,10.0,53,0.00,,,0.00,Weather View 32 v70,2013-07-18 15:20:00,
2013-07-18 11:26:00,91.0,73.6,29.69,NE,45,6.0,11.0,57,0.00,,,0.00,Weather View 32 v70,2013-07-18 15:26:00,
2013-07-18 11:35:00,90.0,72.1,29.69,West,270,1.0,11.0,56,0.00,,,0.00,Weather View 32 v70,2013-07-18 15:35:00,
2013-07-18 11:40:00,91.0,73.1,29.69,WSW,247,7.0,11.0,56,0.00,,,0.00,Weather View 32 v70,2013-07-18 15:40:00,
2013-07-18 11:45:00,90.0,72.6,29.69,SW,225,6.0,11.0,57,0.00,,,0.00,Weather View 32 v70,2013-07-18 15:45:00,
2013-07-18 11:55:00,92.0,74.0,29.68,SSW,202,2.0,11.0,56,0.00,,,0.00,Weather View 32 v70,2013-07-18 15:55:00,
2013-07-18 12:05:00,95.0,73.9,29.68,North,360,0.0,11.0,51,0.00,,,0.00,Weather View 32 v70,2013-07-18 16:05:00,
2013-07-18 12:10:00,95.0,73.9,29.68,ESE,112,6.0,11.0,51,0.00,,,0.00,Weather View 32 v70,2013-07-18 16:10:00,
2013-07-18 12:20:00,94.0,73.6,29.68,South,180,2.0,11.0,52,0.00,,,0.00,Weather View 32 v70,2013-07-18 16:20:00,
2013-07-18 12:27:00,92.0,75.5,29.68,SW,225,7.0,9.0,59,0.00,,,0.00,Weather View 32 v70,2013-07-18 16:27:00,
2013-07-18 12:35:00,92.0,75.5,29.68,SW,225,5.0,10.0,59,0.00,,,0.00,Weather View 32 v70,2013-07-18 16:35:00,
2013-07-18 12:40:00,91.0,74.6,29.68,NW,315,4.0,10.0,59,0.00,,,0.00,Weather View 32 v70,2013-07-18 16:40:00,
2013-07-18 12:50:00,91.0,75.1,29.67,SSE,157,7.0,10.0,60,0.00,,,0.00,Weather View 32 v70,2013-07-18 16:50:00,
2013-07-18 13:00:00,92.0,75.0,29.67,South,180,6.0,10.0,58,0.00,,,0.00,Weather View 32 v70,2013-07-18 17:00:00,
2013-07-18 13:05:00,92.0,75.0,29.67,East,90,4.0,10.0,58,0.00,,,0.00,Weather View 32 v70,2013-07-18 17:05:00,
2013-07-18 13:15:00,91.0,74.6,29.67,SW,225,7.0,12.0,59,0.00,,,0.00,Weather View 32 v70,2013-07-18 17:15:00,
2013-07-18 13:25:00,93.0,73.8,29.67,South,180,4.0,12.0,54,0.00,,,0.00,Weather View 32 v70,2013-07-18 17:25:00,
2013-07-18 13:30:00,93.0,74.4,29.67,SSW,202,2.0,12.0,55,0.00,,,0.00,Weather View 32 v70,2013-07-18 17:30:00,
2013-07-18 13:35:00,91.0,74.1,29.67,South,180,2.0,12.0,58,0.00,,,0.00,Weather View 32 v70,2013-07-18 17:35:00,
2013-07-18 13:45:00,91.0,74.6,29.66,SW,225,5.0,12.0,59,0.00,,,0.00,Weather View 32 v70,2013-07-18 17:45:00,
2013-07-18 13:55:00,92.0,73.4,29.66,West,270,1.0,12.0,55,0.00,,,0.00,Weather View 32 v70,2013-07-18 17:55:00,
2013-07-18 14:05:00,93.0,73.8,29.65,SSW,202,6.0,12.0,54,0.00,,,0.00,Weather View 32 v70,2013-07-18 18:05:00,
2013-07-18 14:10:00,92.0,72.9,29.65,WSW,247,6.0,11.0,54,0.00,,,0.00,Weather View 32 v70,2013-07-18 18:10:00,
2013-07-18 14:20:00,93.0,72.7,29.65,South,180,0.0,10.0,52,0.00,,,0.00,Weather View 32 v70,2013-07-18 18:20:00,
2013-07-18 14:28:00,94.0,72.4,29.65,SW,225,7.0,10.0,50,0.00,,,0.00,Weather View 32 v70,2013-07-18 18:28:00,
2013-07-18 14:35:00,93.0,72.1,29.64,SW,225,9.0,10.0,51,0.00,,,0.00,Weather View 32 v70,2013-07-18 18:35:00,
2013-07-18 14:40:00,93.0,72.1,29.64,SSW,202,6.0,10.0,51,0.00,,,0.00,Weather View 32 v70,2013-07-18 18:40:00,
2013-07-18 14:45:00,93.0,72.7,29.64,SE,135,3.0,10.0,52,0.00,,,0.00,Weather View 32 v70,2013-07-18 18:45:00,
2013-07-18 14:55:00,93.0,73.8,29.64,WSW,247,6.0,10.0,54,0.00,,,0.00,Weather View 32 v70,2013-07-18 18:55:00,
2013-07-18 15:00:00,93.0,72.7,29.63,WNW,292,4.0,10.0,52,0.00,,,0.00,Weather View 32 v70,2013-07-18 19:00:00,
2013-07-18 15:10:00,93.0,72.1,29.63,South,180,4.0,12.0,51,0.00,,,0.00,Weather View 32 v70,2013-07-18 19:10:00,
2013-07-18 15:20:00,93.0,73.8,29.63,SW,225,9.0,12.0,54,0.00,,,0.00,Weather View 32 v70,2013-07-18 19:20:00,
2013-07-18 15:29:00,92.0,71.8,29.62,WSW,247,7.0,12.0,52,0.00,,,0.00,Weather View 32 v70,2013-07-18 19:29:00,
2013-07-18 15:35:00,93.0,72.1,29.62,West,270,3.0,12.0,51,0.00,,,0.00,Weather View 32 v70,2013-07-18 19:35:00,
2013-07-18 15:40:00,93.0,72.1,29.62,SW,225,7.0,12.0,51,0.00,,,0.00,Weather View 32 v70,2013-07-18 19:40:00,
2013-07-18 15:50:00,93.0,72.1,29.62,SW,225,5.0,12.0,51,0.00,,,0.00,Weather View 32 v70,2013-07-18 19:50:00,
2013-07-18 15:55:00,92.0,72.9,29.62,SW,225,9.0,12.0,54,0.00,,,0.00,Weather View 32 v70,2013-07-18 19:55:00,
2013-07-18 16:05:00,92.0,72.9,29.61,SW,225,0.0,12.0,54,0.00,,,0.00,Weather View 32 v70,2013-07-18 20:05:00,
2013-07-18 16:10:00,93.0,73.8,29.61,SSW,202,6.0,12.0,54,0.00,,,0.00,Weather View 32 v70,2013-07-18 20:10:00,
2013-07-18 16:20:00,92.0,72.9,29.61,WSW,247,8.0,12.0,54,0.00,,,0.00,Weather View 32 v70,2013-07-18 20:20:00,
2013-07-18 16:29:00,92.0,73.4,29.61,WSW,247,9.0,13.0,55,0.00,,,0.00,Weather View 32 v70,2013-07-18 20:29:00,
2013-07-18 16:35:00,93.0,73.8,29.61,SSW,202,6.0,13.0,54,0.00,,,0.00,Weather View 32 v70,2013-07-18 20:35:00,
2013-07-18 16:40:00,92.0,71.2,29.61,SW,225,7.0,13.0,51,0.00,,,0.00,Weather View 32 v70,2013-07-18 20:40:00,
2013-07-18 16:45:00,91.0,72.0,29.61,SW,225,6.0,13.0,54,0.00,,,0.00,Weather View 32 v70,2013-07-18 20:45:00,
2013-07-18 16:55:00,90.0,73.7,29.60,SW,225,4.0,13.0,59,0.00,,,0.00,Weather View 32 v70,2013-07-18 20:55:00,
2013-07-18 17:05:00,90.0,73.7,29.59,SW,225,5.0,13.0,59,0.00,,,0.00,Weather View 32 v70,2013-07-18 21:05:00,
2013-07-18 17:15:00,90.0,75.6,29.59,SW,225,5.0,13.0,63,0.00,,,0.00,Weather View 32 v70,2013-07-18 21:15:00,
2013-07-18 17:20:00,90.0,74.7,29.59,SW,225,6.0,13.0,61,0.00,,,0.00,Weather View 32 v70,2013-07-18 21:20:00,
2013-07-18 17:30:00,91.0,74.1,29.59,SW,225,7.0,10.0,58,0.00,,,0.00,Weather View 32 v70,2013-07-18 21:30:00,
2013-07-18 17:40:00,91.0,74.1,29.59,SW,225,5.0,10.0,58,0.00,,,0.00,Weather View 32 v70,2013-07-18 21:40:00,
2013-07-18 17:50:00,91.0,74.6,29.59,SW,225,7.0,10.0,59,0.00,,,0.00,Weather View 32 v70,2013-07-18 21:50:00,
2013-07-18 18:00:00,91.0,75.1,29.59,SW,225,7.0,10.0,60,0.00,,,0.00,Weather View 32 v70,2013-07-18 22:00:00,
2013-07-18 18:05:00,91.0,76.1,29.59,SW,225,4.0,10.0,62,0.00,,,0.00,Weather View 32 v70,2013-07-18 22:05:00,
2013-07-18 18:15:00,91.0,74.1,29.59,SW,225,5.0,10.0,58,0.00,,,0.00,Weather View 32 v70,2013-07-18 22:15:00,
2013-07-18 18:25:00,91.0,74.6,29.60,SW,225,4.0,10.0,59,0.00,,,0.00,Weather View 32 v70,2013-07-18 22:25:00,
2013-07-18 18:30:00,92.0,75.5,29.60,WSW,247,6.0,10.0,59,0.00,,,0.00,Weather View 32 v70,2013-07-18 22:30:00,
2013-07-18 18:40:00,92.0,75.0,29.60,SSW,202,2.0,8.0,58,0.00,,,0.00,Weather View 32 v70,2013-07-18 22:40:00,
2013-07-18 18:50:00,93.0,77.0,29.60,SSW,202,0.0,8.0,60,0.00,,,0.00,Weather View 32 v70,2013-07-18 22:50:00,
2013-07-18 19:00:00,92.0,77.5,29.61,WSW,247,2.0,7.0,63,0.00,,,0.00,Weather View 32 v70,2013-07-18 23:00:00,
2013-07-18 19:05:00,91.0,77.5,29.61,WSW,247,6.0,6.0,65,0.00,,,0.00,Weather View 32 v70,2013-07-18 23:05:00,
2013-07-18 19:15:00,92.0,78.5,29.61,WSW,247,0.0,6.0,65,0.00,,,0.00,Weather View 32 v70,2013-07-18 23:15:00,
2013-07-18 19:25:00,87.0,71.9,29.61,ENE,67,12.0,16.0,61,0.00,,,0.00,Weather View 32 v70,2013-07-18 23:25:00,
2013-07-18 19:31:00,87.0,73.3,29.61,NE,45,3.0,16.0,64,0.00,,,0.00,Weather View 32 v70,2013-07-18 23:31:00,
2013-07-18 19:40:00,87.0,72.8,29.61,SW,225,0.0,16.0,63,0.00,,,0.00,Weather View 32 v70,2013-07-18 23:40:00,
2013-07-18 19:50:00,88.0,74.2,29.61,North,360,4.0,16.0,64,0.00,,,0.00,Weather View 32 v70,2013-07-18 23:50:00,
2013-07-18 20:00:00,85.0,73.2,29.61,ENE,67,8.0,16.0,68,0.00,,,0.00,Weather View 32 v70,2013-07-19 00:00:00,
2013-07-18 20:10:00,84.0,72.7,29.60,ENE,67,5.0,16.0,69,0.00,,,0.00,Weather View 32 v70,2013-07-19 00:10:00,
2013-07-18 20:15:00,84.0,72.7,29.61,NE,45,4.0,16.0,69,0.00,,,0.00,Weather View 32 v70,2013-07-19 00:15:00,
2013-07-18 20:25:00,84.0,73.5,29.60,ENE,67,0.0,13.0,71,0.00,,,0.00,Weather View 32 v70,2013-07-19 00:25:00,
2013-07-18 20:31:00,84.0,73.5,29.60,ENE,67,0.0,10.0,71,0.00,,,0.00,Weather View 32 v70,2013-07-19 00:31:00,
2013-07-18 20:40:00,83.0,73.8,29.59,West,270,0.0,10.0,74,0.00,,,0.00,Weather View 32 v70,2013-07-19 00:40:00,
2013-07-18 20:45:00,83.0,73.4,29.59,SW,225,0.0,10.0,73,0.00,,,0.00,Weather View 32 v70,2013-07-19 00:45:00,
2013-07-18 20:55:00,82.0,73.7,29.59,NE,45,0.0,10.0,76,0.00,,,0.00,Weather View 32 v70,2013-07-19 00:55:00,
2013-07-18 21:00:00,81.0,73.1,29.59,NNW,337,0.0,9.0,77,0.00,,,0.00,Weather View 32 v70,2013-07-19 01:00:00,
2013-07-18 21:10:00,81.0,74.6,29.59,WSW,247,4.0,7.0,81,0.00,,,0.00,Weather View 32 v70,2013-07-19 01:10:00,
2013-07-18 21:20:00,80.0,73.6,29.59,WSW,247,0.0,7.0,81,0.00,,,0.00,Weather View 32 v70,2013-07-19 01:20:00,
2013-07-18 21:25:00,80.0,73.6,29.59,WSW,247,0.0,6.0,81,0.00,,,0.00,Weather View 32 v70,2013-07-19 01:25:00,
2013-07-18 21:32:00,80.0,73.6,29.59,WSW,247,0.0,6.0,81,0.00,,,0.00,Weather View 32 v70,2013-07-19 01:32:00,
2013-07-18 21:40:00,80.0,72.1,29.59,SSW,202,1.0,6.0,77,0.00,,,0.00,Weather View 32 v70,2013-07-19 01:40:00,
2013-07-18 21:45:00,79.0,71.9,29.59,SSW,202,0.0,6.0,79,0.00,,,0.00,Weather View 32 v70,2013-07-19 01:45:00,
2013-07-18 21:55:00,79.0,71.1,29.58,SSW,202,2.0,6.0,77,0.00,,,0.00,Weather View 32 v70,2013-07-19 01:55:00,
2013-07-18 22:05:00,79.0,72.3,29.58,SE,135,1.0,6.0,80,0.00,,,0.00,Weather View 32 v70,2013-07-19 02:05:00,
2013-07-18 22:10:00,79.0,72.6,29.57,South,180,4.0,6.0,81,0.00,,,0.00,Weather View 32 v70,2013-07-19 02:10:00,
2013-07-18 22:20:00,79.0,71.9,29.57,SE,135,3.0,5.0,79,0.00,,,0.00,Weather View 32 v70,2013-07-19 02:20:00,
2013-07-18 22:30:00,79.0,71.9,29.57,SSW,202,2.0,5.0,79,0.00,,,0.00,Weather View 32 v70,2013-07-19 02:30:00,
2013-07-18 22:40:00,79.0,71.9,29.58,SSW,202,0.0,5.0,79,0.00,,,0.00,Weather View 32 v70,2013-07-19 02:40:00,
2013-07-18 22:50:00,78.0,70.2,29.57,SW,225,0.0,5.0,77,0.00,,,0.00,Weather View 32 v70,2013-07-19 02:50:00,
2013-07-18 22:55:00,78.0,70.9,29.58,SW,225,1.0,5.0,79,0.00,,,0.00,Weather View 32 v70,2013-07-19 02:55:00,
2013-07-18 23:05:00,77.0,65.2,29.57,SW,225,0.0,5.0,67,0.00,,,0.00,Weather View 32 v70,2013-07-19 03:05:00,
2013-07-18 23:10:00,77.0,66.8,29.57,SW,225,0.0,5.0,71,0.00,,,0.00,Weather View 32 v70,2013-07-19 03:10:00,
2013-07-18 23:20:00,77.0,61.5,29.57,SW,225,0.0,5.0,59,0.00,,,0.00,Weather View 32 v70,2013-07-19 03:20:00,
2013-07-18 23:30:00,78.0,63.9,29.57,SSE,157,1.0,6.0,62,0.00,,,0.00,Weather View 32 v70,2013-07-19 03:30:00,
2013-07-18 23:40:00,79.0,70.0,29.57,SE,135,0.0,6.0,74,0.00,,,0.00,Weather View 32 v70,2013-07-19 03:40:00,
2013-07-18 23:45:00,79.0,70.4,29.57,NE,45,1.0,6.0,75,0.00,,,0.00,Weather View 32 v70,2013-07-19 03:45:00,
2013-07-18 23:55:00,79.0,70.4,29.57,NE,45,1.0,6.0,75,0.00,,,0.00,Weather View 32 v70,2013-07-19 03:55:00,